Terminal Aerodrome Forecast
Issued by NWS Sterling, VA

Home | Current Version | Previous Version | Text Only | Print | Product List | Glossary On
Versions: 1 2 3 4 5 6 7 8 9 10 11 12 13 14 15 16 17 18 19 20 21 22 23
234
FTUS41 KLWX 062320
TAFCHO
TAF
KCHO 062320Z 0700/0724 31005KT P6SM -SHRA OVC045
     FM070100 31005KT P6SM OVC040
     FM071800 31005KT P6SM SCT050
     FM071900 29005KT P6SM BKN050
     FM072100 23005KT P6SM BKN100=

USA.gov is the U.S. government's official web portal to all federal, state and local government web resources and services.